Time;durP1;ratioP1;P1;durP2;ratioP2;P2;SDS_P1;SDS_P2;PMS_P1;PMS_P2;Temp;Humidity;BMP_temperature;BMP_pressure;BME280_temperature;BME280_humidity;BME280_pressure;Samples;Min_cycle;Max_cycle;Signal;HPM_P1;HPM_P2
2023/08/11 00:00:24;;;;;;;3.67;2.97;;;;;;;;;;5010579;28;20658;-78
2023/08/11 00:02:52;;;;;;;4.43;2.80;;;;;;;;;;5009187;28;20236;-78
2023/08/11 00:05:19;;;;;;;3.20;2.90;;;;;;;;;;4992413;28;20698;-78
2023/08/11 00:07:50;;;;;;;3.10;2.60;;;;;;;;;;4993151;28;20270;-78
2023/08/11 00:10:17;;;;;;;5.50;2.83;;;;;;;;;;5002898;28;20187;-78
2023/08/11 00:12:43;;;;;;;4.27;2.80;;;;;;;;;;5002936;28;20192;-78
2023/08/11 00:15:10;;;;;;;3.60;3.30;;;;;;;;;;5006253;28;20577;-78
2023/08/11 00:17:36;;;;;;;4.13;3.10;;;;;;;;;;4991561;28;20268;-78
2023/08/11 00:20:04;;;;;;;3.60;3.30;;;;;;;;;;5009614;28;20245;-78
2023/08/11 00:22:30;;;;;;;3.63;3.33;;;;;;;;;;5005137;28;20207;-78
2023/08/11 00:24:56;;;;;;;5.47;3.90;;;;;;;;;;4987874;28;20237;-78
2023/08/11 00:27:22;;;;;;;5.50;3.60;;;;;;;;;;5009924;28;20176;-78
2023/08/11 00:29:48;;;;;;;4.43;3.73;;;;;;;;;;4992732;28;20202;-78
2023/08/11 00:32:15;;;;;;;5.17;3.60;;;;;;;;;;5010173;28;20179;-78
2023/08/11 00:34:41;;;;;;;4.13;3.33;;;;;;;;;;5038808;22;20228;-82
2023/08/11 00:37:07;;;;;;;3.93;3.40;;;;;;;;;;5030912;28;20675;-81
2023/08/11 00:39:34;;;;;;;5.37;3.47;;;;;;;;;;5015663;28;20257;-83
2023/08/11 00:42:00;;;;;;;3.87;3.47;;;;;;;;;;5036787;28;20269;-82
2023/08/11 00:44:26;;;;;;;5.67;3.77;;;;;;;;;;5047994;28;20695;-82
2023/08/11 00:46:53;;;;;;;3.80;3.50;;;;;;;;;;5049073;28;20193;-81
2023/08/11 00:49:19;;;;;;;5.03;3.53;;;;;;;;;;5015468;28;20177;-81
2023/08/11 00:51:46;;;;;;;4.77;3.50;;;;;;;;;;5016164;28;20186;-82
2023/08/11 00:54:12;;;;;;;5.87;3.50;;;;;;;;;;5026125;28;20200;-81
2023/08/11 00:56:44;;;;;;;6.50;3.97;;;;;;;;;;5049441;28;20569;-83
2023/08/11 00:59:11;;;;;;;3.70;3.40;;;;;;;;;;5050722;28;20202;-82
2023/08/11 01:01:38;;;;;;;4.57;3.90;;;;;;;;;;5048841;28;20178;-81
2023/08/11 01:04:05;;;;;;;6.23;3.77;;;;;;;;;;4997032;28;20214;-82
2023/08/11 01:06:40;;;;;;;4.70;3.53;;;;;;;;;;5032770;28;20674;-81
2023/08/11 01:09:08;;;;;;;4.60;4.20;;;;;;;;;;5029698;28;20192;-83
2023/08/11 01:11:51;;;;;;;5.90;4.30;;;;;;;;;;5023428;28;20178;-82
2023/08/11 01:14:29;;;;;;;4.80;4.30;;;;;;;;;;5048417;28;20235;-82
2023/08/11 01:16:56;;;;;;;5.43;4.80;;;;;;;;;;5030280;28;20181;-81
2023/08/11 01:19:32;;;;;;;5.50;4.83;;;;;;;;;;4988052;28;20202;-83
2023/08/11 01:22:00;;;;;;;5.50;4.73;;;;;;;;;;5017152;28;20209;-82
2023/08/11 01:24:27;;;;;;;5.47;4.20;;;;;;;;;;5049707;28;20252;-81
2023/08/11 01:26:53;;;;;;;7.20;4.53;;;;;;;;;;5030909;28;20174;-82
2023/08/11 01:29:19;;;;;;;4.53;4.13;;;;;;;;;;5021034;28;20178;-82
2023/08/11 01:31:45;;;;;;;7.33;5.10;;;;;;;;;;5012629;28;20236;-81
2023/08/11 01:34:12;;;;;;;6.20;5.07;;;;;;;;;;5031996;28;20336;-82
2023/08/11 01:36:41;;;;;;;6.33;4.53;;;;;;;;;;5012231;28;20715;-81
2023/08/11 01:39:09;;;;;;;5.40;3.97;;;;;;;;;;5029738;28;20182;-82
2023/08/11 01:41:36;;;;;;;6.57;4.23;;;;;;;;;;5048180;28;20182;-82
2023/08/11 01:44:02;;;;;;;5.00;4.50;;;;;;;;;;5030547;28;20302;-81
2023/08/11 01:46:29;;;;;;;6.00;4.67;;;;;;;;;;5025267;28;20588;-81
2023/08/11 01:48:56;;;;;;;5.60;4.23;;;;;;;;;;5007970;28;20925;-82
2023/08/11 01:51:27;;;;;;;4.77;4.33;;;;;;;;;;5017653;28;20186;-81
2023/08/11 01:53:53;;;;;;;5.73;4.87;;;;;;;;;;5010494;28;20425;-83
2023/08/11 01:56:21;;;;;;;6.70;5.00;;;;;;;;;;5008462;28;20688;-82
2023/08/11 01:58:47;;;;;;;6.63;5.33;;;;;;;;;;4984506;28;20187;-83
2023/08/11 02:01:14;;;;;;;5.97;5.20;;;;;;;;;;5014413;28;20190;-81
2023/08/11 02:03:41;;;;;;;5.47;4.90;;;;;;;;;;5048786;28;20213;-81
2023/08/11 02:06:07;;;;;;;8.70;5.90;;;;;;;;;;5011995;28;20296;-82
2023/08/11 02:08:33;;;;;;;5.90;5.30;;;;;;;;;;5033322;28;20221;-81
2023/08/11 02:10:59;;;;;;;6.40;4.93;;;;;;;;;;5013821;28;20617;-82
2023/08/11 02:13:25;;;;;;;6.70;4.90;;;;;;;;;;5018114;28;20181;-82
2023/08/11 02:15:51;;;;;;;5.13;4.40;;;;;;;;;;4993739;28;20289;-82
2023/08/11 02:18:17;;;;;;;4.90;4.40;;;;;;;;;;5035164;28;20185;-81
2023/08/11 02:20:44;;;;;;;5.27;4.20;;;;;;;;;;5036179;28;20601;-81
2023/08/11 02:23:10;;;;;;;5.10;4.60;;;;;;;;;;5054112;28;20182;-81
2023/08/11 02:25:36;;;;;;;6.10;4.93;;;;;;;;;;5013470;28;20260;-82
2023/08/11 02:28:04;;;;;;;6.17;5.17;;;;;;;;;;5004979;28;20281;-81
2023/08/11 02:30:30;;;;;;;6.97;5.07;;;;;;;;;;5034419;28;20237;-82
2023/08/11 02:32:56;;;;;;;6.13;5.53;;;;;;;;;;5027224;28;20194;-82
2023/08/11 02:35:23;;;;;;;6.77;5.30;;;;;;;;;;5012010;28;20229;-82
2023/08/11 02:37:49;;;;;;;6.07;4.63;;;;;;;;;;5002629;28;20249;-82
2023/08/11 02:40:19;;;;;;;7.20;5.47;;;;;;;;;;5026018;28;20531;-81
2023/08/11 02:42:53;;;;;;;5.60;5.10;;;;;;;;;;5020616;28;20235;-82
2023/08/11 02:45:19;;;;;;;6.20;5.60;;;;;;;;;;5003830;28;20213;-82
2023/08/11 02:47:46;;;;;;;5.90;5.30;;;;;;;;;;5011415;28;20200;-83
2023/08/11 02:50:13;;;;;;;7.70;5.03;;;;;;;;;;5049745;28;20196;-82
2023/08/11 02:52:39;;;;;;;7.30;5.07;;;;;;;;;;5001577;28;20189;-82
2023/08/11 02:55:06;;;;;;;7.10;5.20;;;;;;;;;;5033040;28;20598;-82
2023/08/11 02:57:32;;;;;;;8.37;5.80;;;;;;;;;;5013901;28;20213;-82
2023/08/11 02:59:59;;;;;;;6.63;5.70;;;;;;;;;;5001263;28;20179;-82
2023/08/11 03:02:25;;;;;;;7.20;5.77;;;;;;;;;;5033953;28;20186;-81
2023/08/11 03:04:51;;;;;;;7.27;5.53;;;;;;;;;;5050450;28;20210;-82
2023/08/11 03:07:18;;;;;;;7.63;5.40;;;;;;;;;;5033787;28;20206;-82
2023/08/11 03:09:44;;;;;;;7.17;5.20;;;;;;;;;;5035948;28;20174;-82
2023/08/11 03:12:10;;;;;;;4.60;4.20;;;;;;;;;;5033865;28;20186;-85
2023/08/11 03:14:37;;;;;;;5.67;4.30;;;;;;;;;;5035535;28;20231;-82
2023/08/11 03:17:05;;;;;;;5.77;4.03;;;;;;;;;;5052565;28;20243;-82
2023/08/11 03:19:32;;;;;;;5.43;4.93;;;;;;;;;;5010354;28;20203;-82
2023/08/11 03:21:59;;;;;;;5.03;4.30;;;;;;;;;;5033811;28;20272;-81
2023/08/11 03:24:25;;;;;;;4.40;4.00;;;;;;;;;;5050191;28;20206;-82
2023/08/11 03:26:52;;;;;;;4.10;3.70;;;;;;;;;;5012309;28;20186;-81
2023/08/11 03:29:18;;;;;;;5.27;4.00;;;;;;;;;;5016089;28;20520;-81
2023/08/11 03:31:45;;;;;;;5.37;3.70;;;;;;;;;;5032300;28;20186;-81
2023/08/11 03:34:13;;;;;;;4.37;3.80;;;;;;;;;;5011264;28;20661;-81
2023/08/11 03:36:39;;;;;;;7.20;4.47;;;;;;;;;;4993170;28;20215;-83
2023/08/11 03:39:06;;;;;;;4.87;3.83;;;;;;;;;;5015710;28;20186;-83
2023/08/11 03:41:33;;;;;;;4.47;3.80;;;;;;;;;;4989041;28;20664;-81
2023/08/11 03:43:59;;;;;;;5.53;3.70;;;;;;;;;;5015065;28;20212;-83
2023/08/11 03:46:26;;;;;;;4.53;3.87;;;;;;;;;;5006764;28;20203;-81
2023/08/11 03:48:53;;;;;;;4.83;4.07;;;;;;;;;;5028479;28;20181;-82
2023/08/11 03:51:20;;;;;;;5.90;4.23;;;;;;;;;;5009839;28;20282;-82
2023/08/11 03:53:47;;;;;;;5.87;4.40;;;;;;;;;;5045309;28;20186;-81
2023/08/11 03:56:13;;;;;;;5.33;4.40;;;;;;;;;;5015152;28;20208;-82
2023/08/11 03:58:43;;;;;;;5.37;4.33;;;;;;;;;;5033761;28;20186;-82
2023/08/11 04:01:09;;;;;;;4.90;4.40;;;;;;;;;;5033136;28;20232;-82
2023/08/11 04:03:36;;;;;;;6.77;4.50;;;;;;;;;;5034359;28;20213;-83
2023/08/11 04:06:02;;;;;;;5.47;4.17;;;;;;;;;;5015244;28;20379;-83
2023/08/11 04:08:28;;;;;;;6.83;4.60;;;;;;;;;;5030912;28;20660;-83
2023/08/11 04:10:55;;;;;;;5.30;4.57;;;;;;;;;;5032084;28;20300;-83
2023/08/11 04:13:21;;;;;;;5.87;4.57;;;;;;;;;;5032220;28;20214;-81
2023/08/11 04:15:48;;;;;;;4.10;3.70;;;;;;;;;;5000345;28;20194;-81
2023/08/11 04:18:14;;;;;;;5.67;4.20;;;;;;;;;;5014700;28;20290;-82
2023/08/11 04:20:40;;;;;;;4.80;4.20;;;;;;;;;;5050158;28;20836;-81
2023/08/11 04:23:07;;;;;;;4.03;3.63;;;;;;;;;;5031396;28;20182;-82
2023/08/11 04:25:36;;;;;;;6.40;3.90;;;;;;;;;;5000731;28;20213;-81
2023/08/11 04:28:02;;;;;;;5.07;4.63;;;;;;;;;;5032811;28;20244;-81
2023/08/11 04:30:29;;;;;;;5.00;4.33;;;;;;;;;;5031495;28;20661;-81
2023/08/11 04:32:55;;;;;;;7.37;4.70;;;;;;;;;;5013549;28;20184;-81
2023/08/11 04:35:23;;;;;;;5.10;3.90;;;;;;;;;;5032991;28;20225;-84
2023/08/11 04:37:50;;;;;;;4.97;4.37;;;;;;;;;;5031720;28;20605;-81
2023/08/11 04:40:18;;;;;;;6.53;4.73;;;;;;;;;;5015368;28;20180;-81
2023/08/11 04:42:46;;;;;;;6.50;4.70;;;;;;;;;;5007354;28;20256;-82
2023/08/11 04:45:16;;;;;;;5.00;4.60;;;;;;;;;;5035035;28;20209;-81
2023/08/11 04:47:43;;;;;;;6.10;4.87;;;;;;;;;;5012613;28;20241;-82
2023/08/11 04:50:13;;;;;;;7.03;4.90;;;;;;;;;;5031176;28;20190;-81
2023/08/11 04:52:39;;;;;;;5.23;4.67;;;;;;;;;;5010493;28;20839;-82
2023/08/11 04:55:07;;;;;;;6.77;4.57;;;;;;;;;;5012761;28;20221;-83
2023/08/11 04:57:34;;;;;;;7.57;5.07;;;;;;;;;;4995772;28;20178;-82
2023/08/11 05:00:02;;;;;;;5.57;4.10;;;;;;;;;;5029369;28;20189;-82
2023/08/11 05:02:28;;;;;;;5.30;4.80;;;;;;;;;;5033506;28;20261;-82
2023/08/11 05:04:54;;;;;;;7.77;5.40;;;;;;;;;;5025563;28;20206;-81
2023/08/11 05:07:21;;;;;;;6.40;5.10;;;;;;;;;;5033456;28;20215;-82
2023/08/11 05:09:47;;;;;;;6.03;5.30;;;;;;;;;;5032679;28;20197;-81
2023/08/11 05:12:16;;;;;;;6.67;4.90;;;;;;;;;;5031530;28;20222;-82
2023/08/11 05:14:42;;;;;;;6.97;5.50;;;;;;;;;;5031980;28;20619;-83
2023/08/11 05:17:11;;;;;;;5.43;4.93;;;;;;;;;;5001607;28;20200;-83
2023/08/11 05:19:37;;;;;;;6.83;5.03;;;;;;;;;;5006750;28;20240;-81
2023/08/11 05:22:04;;;;;;;5.00;4.50;;;;;;;;;;5024333;28;20186;-81
2023/08/11 05:24:30;;;;;;;5.27;4.40;;;;;;;;;;5045625;28;20205;-81
2023/08/11 05:26:57;;;;;;;4.83;4.43;;;;;;;;;;5046640;28;20297;-81
2023/08/11 05:29:24;;;;;;;7.90;5.27;;;;;;;;;;5024041;28;20240;-82
2023/08/11 05:31:51;;;;;;;6.10;5.40;;;;;;;;;;5005932;28;20297;-83
2023/08/11 05:34:17;;;;;;;5.77;4.97;;;;;;;;;;5049311;28;20269;-81
2023/08/11 05:36:43;;;;;;;5.30;4.57;;;;;;;;;;5023569;28;20269;-81
2023/08/11 05:39:10;;;;;;;6.10;5.50;;;;;;;;;;5013964;28;20240;-81
2023/08/11 05:41:37;;;;;;;6.13;5.33;;;;;;;;;;5020407;28;20563;-81
2023/08/11 05:44:03;;;;;;;7.83;5.30;;;;;;;;;;5049627;28;20214;-82
2023/08/11 05:46:30;;;;;;;5.47;4.10;;;;;;;;;;5052152;28;20288;-82
2023/08/11 05:48:57;;;;;;;4.83;4.30;;;;;;;;;;5033457;28;20612;-82
2023/08/11 05:51:23;;;;;;;5.73;4.00;;;;;;;;;;5028755;28;20687;-82
2023/08/11 05:53:49;;;;;;;5.17;4.40;;;;;;;;;;5018989;28;20186;-83
2023/08/11 05:56:15;;;;;;;6.27;4.13;;;;;;;;;;5034553;28;20193;-82
2023/08/11 05:58:42;;;;;;;5.30;4.80;;;;;;;;;;5008878;28;20178;-82
2023/08/11 06:01:08;;;;;;;4.87;4.37;;;;;;;;;;5050876;28;20288;-82
2023/08/11 06:03:34;;;;;;;6.27;4.70;;;;;;;;;;5016137;28;20317;-82
2023/08/11 06:06:01;;;;;;;5.30;4.80;;;;;;;;;;5023475;28;20216;-81
2023/08/11 06:08:27;;;;;;;5.33;4.83;;;;;;;;;;5052372;28;20206;-81
2023/08/11 06:10:55;;;;;;;7.23;5.70;;;;;;;;;;5017609;28;20174;-83
2023/08/11 06:13:21;;;;;;;8.23;5.70;;;;;;;;;;5052586;28;20178;-82
2023/08/11 06:15:48;;;;;;;7.33;5.43;;;;;;;;;;5052062;28;20348;-82
2023/08/11 06:18:14;;;;;;;5.57;4.97;;;;;;;;;;5017906;28;20197;-83
2023/08/11 06:20:40;;;;;;;6.50;4.40;;;;;;;;;;5035494;28;20202;-83
2023/08/11 06:23:06;;;;;;;7.07;5.20;;;;;;;;;;5000405;28;20553;-82
2023/08/11 06:25:33;;;;;;;4.97;4.57;;;;;;;;;;5033422;28;20222;-82
2023/08/11 06:27:59;;;;;;;6.90;5.07;;;;;;;;;;5033283;28;20178;-82
2023/08/11 06:30:27;;;;;;;7.10;4.90;;;;;;;;;;5003896;28;20237;-82
2023/08/11 06:32:54;;;;;;;5.43;4.93;;;;;;;;;;5031176;28;20178;-83
2023/08/11 06:35:20;;;;;;;5.93;4.90;;;;;;;;;;5049243;22;21346;-77
2023/08/11 06:37:46;;;;;;;4.70;4.30;;;;;;;;;;5053010;28;20172;-77
2023/08/11 06:40:13;;;;;;;4.40;4.00;;;;;;;;;;5035085;28;20744;-77
2023/08/11 06:42:40;;;;;;;4.73;3.97;;;;;;;;;;5018921;28;20709;-77
2023/08/11 06:45:09;;;;;;;6.33;4.43;;;;;;;;;;5035538;28;20295;-77
2023/08/11 06:47:35;;;;;;;6.50;4.90;;;;;;;;;;5003165;28;20280;-77
2023/08/11 06:50:03;;;;;;;5.73;4.60;;;;;;;;;;5019577;28;20182;-77
2023/08/11 06:52:29;;;;;;;5.30;4.50;;;;;;;;;;5035506;28;20212;-77
2023/08/11 06:54:55;;;;;;;6.03;4.53;;;;;;;;;;5035115;28;20701;-77
2023/08/11 06:57:21;;;;;;;5.63;4.67;;;;;;;;;;5033733;28;20182;-77
2023/08/11 06:59:48;;;;;;;4.80;4.30;;;;;;;;;;5034313;28;20177;-75
2023/08/11 07:02:14;;;;;;;7.47;4.30;;;;;;;;;;5018272;28;20227;-75
2023/08/11 07:04:41;;;;;;;4.17;3.77;;;;;;;;;;5054733;28;20206;-81
2023/08/11 07:07:07;;;;;;;4.20;3.80;;;;;;;;;;5034405;28;20171;-77
2023/08/11 07:09:34;;;;;;;5.03;4.00;;;;;;;;;;5052142;28;20212;-76
2023/08/11 07:12:00;;;;;;;5.10;3.70;;;;;;;;;;5017912;28;20757;-79
2023/08/11 07:14:26;;;;;;;4.50;4.03;;;;;;;;;;5034564;28;20558;-76
2023/08/11 07:16:53;;;;;;;5.20;3.70;;;;;;;;;;5052257;28;20654;-77
2023/08/11 07:19:19;;;;;;;8.97;4.17;;;;;;;;;;5051274;28;20196;-76
2023/08/11 07:21:45;;;;;;;5.40;3.70;;;;;;;;;;5034840;28;20272;-76
2023/08/11 07:24:12;;;;;;;5.53;3.70;;;;;;;;;;5002582;28;20214;-77
2023/08/11 07:26:38;;;;;;;6.47;3.63;;;;;;;;;;5002420;28;20239;-77
2023/08/11 07:29:04;;;;;;;4.73;3.93;;;;;;;;;;5002333;28;20650;-75
2023/08/11 07:31:30;;;;;;;7.03;3.77;;;;;;;;;;5002122;28;20181;-76
2023/08/11 07:33:57;;;;;;;9.13;4.80;;;;;;;;;;5002351;28;20534;-76
2023/08/11 07:36:23;;;;;;;5.47;4.97;;;;;;;;;;5002065;28;20344;-75
2023/08/11 07:38:49;;;;;;;8.27;4.90;;;;;;;;;;5002303;28;20396;-76
2023/08/11 07:41:16;;;;;;;5.10;4.60;;;;;;;;;;5001749;28;20205;-77
2023/08/11 07:43:42;;;;;;;6.13;4.73;;;;;;;;;;5001778;28;20292;-76
2023/08/11 07:46:08;;;;;;;5.03;4.53;;;;;;;;;;5002094;28;20193;-76
2023/08/11 07:48:34;;;;;;;5.43;4.40;;;;;;;;;;5001527;28;20200;-77
2023/08/11 07:51:00;;;;;;;5.17;4.67;;;;;;;;;;5001870;28;20190;-76
2023/08/11 07:53:27;;;;;;;6.53;4.97;;;;;;;;;;5001330;28;20213;-77
2023/08/11 07:55:53;;;;;;;5.33;4.83;;;;;;;;;;5001447;28;20205;-75
2023/08/11 07:58:19;;;;;;;5.57;4.80;;;;;;;;;;5001687;28;20193;-76
2023/08/11 08:00:46;;;;;;;4.73;4.33;;;;;;;;;;5001631;28;20190;-80
2023/08/11 08:03:12;;;;;;;5.20;4.33;;;;;;;;;;5001660;28;20234;-77
2023/08/11 08:05:38;;;;;;;5.50;4.87;;;;;;;;;;5001188;28;20678;-77
2023/08/11 08:08:05;;;;;;;7.17;5.17;;;;;;;;;;5050601;28;20154;-77
2023/08/11 08:10:31;;;;;;;6.00;4.93;;;;;;;;;;5050282;28;20673;-77
2023/08/11 08:12:57;;;;;;;4.70;4.30;;;;;;;;;;5001077;28;20202;-76
2023/08/11 08:15:24;;;;;;;6.27;4.23;;;;;;;;;;4998194;28;20671;-76
2023/08/11 08:17:50;;;;;;;5.13;4.63;;;;;;;;;;4997838;28;20222;-77
2023/08/11 08:20:17;;;;;;;4.50;4.10;;;;;;;;;;4998168;28;20273;-77
2023/08/11 08:22:43;;;;;;;6.80;4.37;;;;;;;;;;4998248;28;20717;-77
2023/08/11 08:25:09;;;;;;;5.67;4.00;;;;;;;;;;4998394;28;20654;-76
2023/08/11 08:27:40;;;;;;;4.20;3.80;;;;;;;;;;4998484;28;20201;-81
2023/08/11 08:30:07;;;;;;;6.17;3.93;;;;;;;;;;5000946;28;20339;-76
2023/08/11 08:32:34;;;;;;;5.13;3.70;;;;;;;;;;5000979;28;20245;-77
2023/08/11 08:35:00;;;;;;;3.97;3.67;;;;;;;;;;5001022;28;20194;-76
2023/08/11 08:37:28;;;;;;;8.07;4.03;;;;;;;;;;5001697;28;20281;-76
2023/08/11 08:39:55;;;;;;;8.00;4.57;;;;;;;;;;5000689;28;20310;-77
2023/08/11 08:42:22;;;;;;;7.37;4.63;;;;;;;;;;4999383;28;20205;-77
2023/08/11 08:44:49;;;;;;;5.83;4.70;;;;;;;;;;5015354;28;20684;-75
2023/08/11 08:47:18;;;;;;;7.87;4.80;;;;;;;;;;5049837;28;20642;-77
2023/08/11 08:49:46;;;;;;;6.83;5.30;;;;;;;;;;5049773;28;20213;-77
2023/08/11 08:52:12;;;;;;;5.70;5.10;;;;;;;;;;5049438;28;20202;-77
2023/08/11 08:54:39;;;;;;;5.33;4.83;;;;;;;;;;5049461;28;20622;-75
2023/08/11 08:57:09;;;;;;;5.93;5.43;;;;;;;;;;5049491;28;20201;-76
2023/08/11 08:59:35;;;;;;;6.50;5.53;;;;;;;;;;5049850;28;20692;-75
2023/08/11 09:02:01;;;;;;;5.60;5.10;;;;;;;;;;5050795;28;20201;-76
2023/08/11 09:04:28;;;;;;;6.90;5.00;;;;;;;;;;5016916;28;20224;-77
2023/08/11 09:06:54;;;;;;;7.50;4.60;;;;;;;;;;5000763;28;20182;-76
2023/08/11 09:09:21;;;;;;;4.10;3.70;;;;;;;;;;5000568;28;20235;-77
2023/08/11 09:11:50;;;;;;;3.83;3.53;;;;;;;;;;4999941;28;20210;-77
2023/08/11 09:14:20;;;;;;;3.80;3.33;;;;;;;;;;5000127;28;20189;-76
2023/08/11 09:16:46;;;;;;;8.00;4.50;;;;;;;;;;5016383;28;20193;-76
2023/08/11 09:19:13;;;;;;;4.27;3.83;;;;;;;;;;5000454;28;20196;-77
2023/08/11 09:21:45;;;;;;;4.10;3.70;;;;;;;;;;5000231;28;20220;-76
2023/08/11 09:24:12;;;;;;;5.00;4.40;;;;;;;;;;4999727;28;20217;-76
2023/08/11 09:26:38;;;;;;;5.33;4.03;;;;;;;;;;5000949;28;20205;-77
2023/08/11 09:29:05;;;;;;;5.47;3.60;;;;;;;;;;5001063;28;20228;-77
2023/08/11 09:31:31;;;;;;;3.97;3.67;;;;;;;;;;5015971;28;20178;-75
2023/08/11 09:34:10;;;;;;;4.80;3.93;;;;;;;;;;5031969;28;20248;-76
2023/08/11 09:36:36;;;;;;;4.37;3.60;;;;;;;;;;5048532;28;20204;-77
2023/08/11 09:39:10;;;;;;;5.23;4.17;;;;;;;;;;5033771;28;20178;-77
2023/08/11 09:41:40;;;;;;;4.20;3.80;;;;;;;;;;5022514;28;20621;-77
2023/08/11 09:44:07;;;;;;;5.17;4.17;;;;;;;;;;5007925;28;20225;-76
2023/08/11 09:46:36;;;;;;;5.43;4.50;;;;;;;;;;5011194;28;20182;-76
2023/08/11 09:49:02;;;;;;;6.23;4.23;;;;;;;;;;5009053;28;20493;-77
2023/08/11 09:51:30;;;;;;;5.33;4.83;;;;;;;;;;5000621;28;20220;-76
2023/08/11 09:54:00;;;;;;;4.47;4.07;;;;;;;;;;5032810;28;20549;-77
2023/08/11 09:56:26;;;;;;;3.83;3.53;;;;;;;;;;4999738;28;20259;-77
2023/08/11 09:58:55;;;;;;;4.07;3.77;;;;;;;;;;4999966;28;20193;-77
2023/08/11 10:01:22;;;;;;;4.50;4.07;;;;;;;;;;5000592;28;20189;-77
2023/08/11 10:03:48;;;;;;;5.97;4.00;;;;;;;;;;5000012;28;20206;-77
2023/08/11 10:06:16;;;;;;;6.80;3.93;;;;;;;;;;5000185;28;20205;-77
2023/08/11 10:08:44;;;;;;;4.63;4.13;;;;;;;;;;5000514;28;20183;-77
2023/08/11 10:11:11;;;;;;;6.80;4.70;;;;;;;;;;4997311;28;20273;-77
2023/08/11 10:13:37;;;;;;;6.23;4.53;;;;;;;;;;5011316;28;20559;-77
2023/08/11 10:16:03;;;;;;;6.80;6.10;;;;;;;;;;5029559;28;20170;-77
2023/08/11 10:18:31;;;;;;;6.70;6.10;;;;;;;;;;5028861;28;20167;-76
2023/08/11 10:20:59;;;;;;;8.57;6.10;;;;;;;;;;5010920;28;20176;-77
2023/08/11 10:23:26;;;;;;;7.40;6.40;;;;;;;;;;5028736;28;20203;-77
2023/08/11 10:25:52;;;;;;;7.63;5.87;;;;;;;;;;5029169;28;20203;-76
2023/08/11 10:28:19;;;;;;;5.83;5.33;;;;;;;;;;5030185;28;20172;-76
2023/08/11 10:30:54;;;;;;;7.30;5.87;;;;;;;;;;5014827;28;20188;-77
2023/08/11 10:33:20;;;;;;;9.53;6.17;;;;;;;;;;5016808;28;20234;-79
2023/08/11 10:35:46;;;;;;;7.93;5.93;;;;;;;;;;5003830;28;20265;-78
2023/08/11 10:38:13;;;;;;;7.87;6.70;;;;;;;;;;5004182;28;20290;-80
2023/08/11 10:40:40;;;;;;;7.17;6.47;;;;;;;;;;4987989;28;20199;-80
2023/08/11 10:43:06;;;;;;;5.23;4.73;;;;;;;;;;5018990;28;20206;-79
2023/08/11 10:45:33;;;;;;;6.80;4.87;;;;;;;;;;5006837;28;20220;-80
2023/08/11 10:48:00;;;;;;;8.50;4.93;;;;;;;;;;5007086;28;20259;-79
2023/08/11 10:50:27;;;;;;;7.30;4.60;;;;;;;;;;5006753;28;20276;-85
2023/08/11 10:53:12;;;;;;;5.90;4.73;;;;;;;;;;5023004;28;20644;-79
2023/08/11 10:55:39;;;;;;;6.00;4.87;;;;;;;;;;5006430;28;20194;-80
2023/08/11 10:58:09;;;;;;;7.03;6.17;;;;;;;;;;5006888;28;20189;-80
2023/08/11 11:00:36;;;;;;;6.30;5.17;;;;;;;;;;5006878;28;20173;-80
2023/08/11 11:03:03;;;;;;;7.43;5.50;;;;;;;;;;5005607;28;20233;-78
2023/08/11 11:05:29;;;;;;;6.07;4.77;;;;;;;;;;5005675;28;20217;-83
2023/08/11 11:07:55;;;;;;;10.30;7.07;;;;;;;;;;5055572;28;20177;-77
2023/08/11 11:10:22;;;;;;;7.43;6.30;;;;;;;;;;5024586;28;20197;-79
2023/08/11 11:12:48;;;;;;;7.83;6.30;;;;;;;;;;5003523;28;20209;-78
2023/08/11 11:15:14;;;;;;;6.70;6.00;;;;;;;;;;5037369;28;20660;-80
2023/08/11 11:17:41;;;;;;;6.80;5.20;;;;;;;;;;5004311;28;20197;-78
2023/08/11 11:20:07;;;;;;;5.07;4.57;;;;;;;;;;5003998;28;20216;-77
2023/08/11 11:22:36;;;;;;;5.27;3.90;;;;;;;;;;4986058;28;20211;-78
2023/08/11 11:25:02;;;;;;;8.50;3.60;;;;;;;;;;4984088;28;20578;-78
2023/08/11 11:27:29;;;;;;;3.50;2.97;;;;;;;;;;5001346;28;20639;-78
2023/08/11 11:29:58;;;;;;;4.00;3.43;;;;;;;;;;4984429;28;20232;-77
2023/08/11 11:32:25;;;;;;;3.77;3.20;;;;;;;;;;4984239;28;20203;-78
2023/08/11 11:34:52;;;;;;;3.97;3.00;;;;;;;;;;4984783;28;20187;-77
2023/08/11 11:37:18;;;;;;;5.80;3.00;;;;;;;;;;5016263;28;20194;-77
2023/08/11 11:39:45;;;;;;;3.30;3.00;;;;;;;;;;4982894;28;20182;-78
2023/08/11 11:42:11;;;;;;;3.07;2.87;;;;;;;;;;4983517;28;20210;-79
2023/08/11 11:44:37;;;;;;;3.83;2.90;;;;;;;;;;4983080;28;20218;-77
2023/08/11 11:47:04;;;;;;;7.40;3.00;;;;;;;;;;4981072;28;20332;-75
2023/08/11 11:49:31;;;;;;;4.20;3.20;;;;;;;;;;5013175;28;20640;-76
2023/08/11 11:51:58;;;;;;;4.40;3.00;;;;;;;;;;5031190;28;20254;-77
2023/08/11 11:54:28;;;;;;;5.13;2.90;;;;;;;;;;5030411;28;20183;-74
2023/08/11 11:56:54;;;;;;;4.07;2.90;;;;;;;;;;5030684;28;20180;-77
2023/08/11 11:59:21;;;;;;;3.33;3.03;;;;;;;;;;5030604;28;20606;-76
2023/08/11 12:01:47;;;;;;;3.43;3.00;;;;;;;;;;5012371;28;20215;-80
2023/08/11 12:04:14;;;;;;;3.20;2.90;;;;;;;;;;5014400;28;20264;-76
2023/08/11 12:06:40;;;;;;;3.80;2.73;;;;;;;;;;4983853;28;20187;-75
2023/08/11 12:09:09;;;;;;;3.83;3.10;;;;;;;;;;4982693;28;20198;-76
2023/08/11 12:11:35;;;;;;;3.10;2.70;;;;;;;;;;4981827;28;20300;-76
2023/08/11 12:14:02;;;;;;;3.40;2.90;;;;;;;;;;4982132;28;20200;-76
2023/08/11 12:16:28;;;;;;;4.67;2.70;;;;;;;;;;4983041;28;20224;-77
2023/08/11 12:19:00;;;;;;;2.93;2.73;;;;;;;;;;4981825;28;20189;-77
2023/08/11 12:21:27;;;;;;;2.70;2.50;;;;;;;;;;4981960;28;20658;-77
2023/08/11 12:23:53;;;;;;;3.87;2.50;;;;;;;;;;4997528;28;20189;-77
2023/08/11 12:26:20;;;;;;;4.53;2.80;;;;;;;;;;4981389;28;20227;-76
2023/08/11 12:28:46;;;;;;;2.80;2.60;;;;;;;;;;4981790;28;20600;-77
2023/08/11 12:31:12;;;;;;;3.60;2.80;;;;;;;;;;4981620;28;20527;-76
2023/08/11 12:33:39;;;;;;;2.77;2.57;;;;;;;;;;4997674;28;20249;-76
2023/08/11 12:36:06;;;;;;;3.43;2.33;;;;;;;;;;5046928;23;20334;-76
2023/08/11 12:38:33;;;;;;;2.53;2.33;;;;;;;;;;5008043;28;20203;-77
2023/08/11 12:40:59;;;;;;;5.77;2.70;;;;;;;;;;5027561;28;20181;-77
2023/08/11 12:43:25;;;;;;;3.90;2.57;;;;;;;;;;5004335;28;20234;-77
2023/08/11 12:45:51;;;;;;;2.70;2.50;;;;;;;;;;4996115;28;20261;-77
2023/08/11 12:48:19;;;;;;;2.83;2.50;;;;;;;;;;5013843;28;20186;-76
2023/08/11 12:50:45;;;;;;;2.60;2.40;;;;;;;;;;5023748;28;20236;-76
2023/08/11 12:53:11;;;;;;;4.60;2.60;;;;;;;;;;5020227;28;20277;-77
2023/08/11 12:55:37;;;;;;;3.30;2.20;;;;;;;;;;4991616;28;20198;-76
2023/08/11 12:58:04;;;;;;;2.30;2.10;;;;;;;;;;5008967;28;20226;-77
2023/08/11 13:00:30;;;;;;;2.37;2.17;;;;;;;;;;5012426;28;20179;-77
2023/08/11 13:02:57;;;;;;;2.70;2.10;;;;;;;;;;4980336;28;20232;-77
2023/08/11 13:05:24;;;;;;;3.23;2.07;;;;;;;;;;4992508;28;20730;-82
2023/08/11 13:07:50;;;;;;;2.30;2.03;;;;;;;;;;4981675;28;20201;-80
2023/08/11 13:10:16;;;;;;;2.03;1.80;;;;;;;;;;4991985;28;20203;-76
2023/08/11 13:12:44;;;;;;;2.10;2.00;;;;;;;;;;4993603;28;20257;-76
2023/08/11 13:15:11;;;;;;;2.30;2.10;;;;;;;;;;4981119;28;20274;-77
2023/08/11 13:17:37;;;;;;;2.17;1.95;;;;;;;;;;4965995;28;20240;-76
2023/08/11 13:20:09;;;;;;;2.00;1.90;;;;;;;;;;5006286;28;20189;-77
2023/08/11 13:22:36;;;;;;;2.22;2.00;;;;;;;;;;5005419;28;20220;-77
2023/08/11 13:25:02;;;;;;;2.60;1.80;;;;;;;;;;4981469;28;20808;-77
2023/08/11 13:27:32;;;;;;;2.20;2.00;;;;;;;;;;4981133;28;20576;-77
2023/08/11 13:29:58;;;;;;;1.88;1.77;;;;;;;;;;4996704;28;20192;-77
2023/08/11 13:32:25;;;;;;;2.95;1.80;;;;;;;;;;4995421;28;20696;-77
2023/08/11 13:34:51;;;;;;;2.17;1.92;;;;;;;;;;4980556;28;20281;-77
2023/08/11 13:37:17;;;;;;;3.25;1.90;;;;;;;;;;5005194;28;20247;-77
2023/08/11 13:39:43;;;;;;;2.15;1.90;;;;;;;;;;4987209;28;20190;-77
2023/08/11 13:42:10;;;;;;;2.08;1.92;;;;;;;;;;4999975;28;20677;-77
2023/08/11 13:44:37;;;;;;;3.80;2.00;;;;;;;;;;4971472;28;20199;-77
2023/08/11 13:47:03;;;;;;;2.78;1.80;;;;;;;;;;4969390;28;20228;-77
2023/08/11 13:49:29;;;;;;;1.88;1.77;;;;;;;;;;4987315;28;20179;-77
2023/08/11 13:51:56;;;;;;;2.20;1.90;;;;;;;;;;4996918;28;20264;-77
2023/08/11 13:54:22;;;;;;;2.03;1.77;;;;;;;;;;4989760;28;20190;-76
2023/08/11 13:56:49;;;;;;;2.50;1.85;;;;;;;;;;4989052;28;20190;-78
2023/08/11 13:59:15;;;;;;;2.10;1.90;;;;;;;;;;5003387;28;20218;-78
2023/08/11 14:01:41;;;;;;;3.35;2.00;;;;;;;;;;4992640;28;20253;-78
2023/08/11 14:04:08;;;;;;;3.25;2.22;;;;;;;;;;4999138;28;20229;-78
2023/08/11 14:06:34;;;;;;;2.10;1.90;;;;;;;;;;5035614;28;20556;-78
2023/08/11 14:09:00;;;;;;;1.90;1.80;;;;;;;;;;4982407;28;20261;-78
2023/08/11 14:11:26;;;;;;;3.58;2.10;;;;;;;;;;4983910;28;20218;-78
2023/08/11 14:13:53;;;;;;;2.50;2.20;;;;;;;;;;5003503;28;20183;-78
2023/08/11 14:16:19;;;;;;;2.42;2.22;;;;;;;;;;4987004;28;20240;-78
2023/08/11 14:18:45;;;;;;;5.00;2.20;;;;;;;;;;4986716;28;20223;-78
2023/08/11 14:21:13;;;;;;;2.42;2.22;;;;;;;;;;4987194;28;20687;-78
2023/08/11 14:23:42;;;;;;;3.25;2.22;;;;;;;;;;4986253;28;20215;-78
2023/08/11 14:26:09;;;;;;;2.15;2.05;;;;;;;;;;4982286;28;20222;-78
2023/08/11 14:28:35;;;;;;;2.47;2.10;;;;;;;;;;4986661;28;20178;-78
2023/08/11 14:31:02;;;;;;;2.47;1.90;;;;;;;;;;4986200;28;20217;-78
2023/08/11 14:33:28;;;;;;;2.25;2.00;;;;;;;;;;4985534;28;20611;-78
2023/08/11 14:35:54;;;;;;;2.20;2.00;;;;;;;;;;5001221;28;20530;-78
2023/08/11 14:38:20;;;;;;;2.22;2.03;;;;;;;;;;4997265;28;20214;-78
2023/08/11 14:40:47;;;;;;;3.47;2.33;;;;;;;;;;5027670;28;20182;-78